Time;durP1;ratioP1;P1;durP2;ratioP2;P2;SDS_P1;SDS_P2;PMS_P1;PMS_P2;Temp;Humidity;BMP_temperature;BMP_pressure;BME280_temperature;BME280_humidity;BME280_pressure;Samples;Min_cycle;Max_cycle;Signal;HPM_P1;HPM_P2
2022/07/20 00:00:41;;;;;;;;;;;;;;;25.07;41.99;101745.25;5049184;28;19917;-55
2022/07/20 00:03:07;;;;;;;;;;;;;;;25.03;42.14;101736.66;5054018;28;19939;-57
2022/07/20 00:05:32;;;;;;;;;;;;;;;25.01;42.16;101745.91;5052013;28;19956;-56
2022/07/20 00:07:58;;;;;;;;;;;;;;;24.97;42.37;101750.75;5051965;28;20369;-54
2022/07/20 00:13:07;;;;;;;;;;;;;;;24.90;42.47;101747.84;5048173;28;19928;-56
2022/07/20 00:15:33;;;;;;;;;;;;;;;24.85;42.46;101743.94;5049794;28;19916;-55
2022/07/20 00:17:58;;;;;;;;;;;;;;;24.81;42.66;101748.81;5054133;28;19920;-55
2022/07/20 00:20:23;;;;;;;;;;;;;;;24.80;42.88;101749.81;5048537;28;20014;-58
2022/07/20 00:22:48;;;;;;;;;;;;;;;24.76;42.84;101746.59;5052473;28;19923;-56
2022/07/20 00:25:14;;;;;;;;;;;;;;;24.69;43.09;101747.38;5053936;28;19935;-55
2022/07/20 00:27:39;;;;;;;;;;;;;;;24.65;43.14;101746.84;5051778;28;19939;-56
2022/07/20 00:30:05;;;;;;;;;;;;;;;24.62;42.91;101747.97;5047150;28;19928;-55
2022/07/20 00:32:35;;;;;;;;;;;;;;;24.58;43.26;101746.59;5046591;28;19909;-57
2022/07/20 00:35:00;;;;;;;;;;;;;;;24.54;43.33;101749.75;5047440;28;19913;-55
2022/07/20 00:37:25;;;;;;;;;;;;;;;24.47;43.33;101746.84;5052148;28;20278;-56
2022/07/20 00:39:50;;;;;;;;;;;;;;;24.42;43.46;101743.81;5050348;28;19921;-57
2022/07/20 00:42:16;;;;;;;;;;;;;;;24.40;43.63;101740.44;5051903;28;19962;-57
2022/07/20 00:44:41;;;;;;;;;;;;;;;24.42;43.48;101743.81;5052090;28;19932;-56
2022/07/20 00:47:06;;;;;;;;;;;;;;;24.42;43.67;101739.25;5056713;28;19935;-57
2022/07/20 00:49:32;;;;;;;;;;;;;;;24.39;43.56;101741.44;5051754;28;20439;-55
2022/07/20 00:51:57;;;;;;;;;;;;;;;24.36;43.71;101731.81;5049696;28;19958;-54
2022/07/20 00:54:23;;;;;;;;;;;;;;;24.34;43.71;101734.66;5054574;28;20411;-56
2022/07/20 00:56:48;;;;;;;;;;;;;;;24.33;43.77;101722.22;5056342;28;20027;-56
2022/07/20 00:59:14;;;;;;;;;;;;;;;24.34;43.87;101723.91;5057374;28;20376;-55
2022/07/20 01:01:39;;;;;;;;;;;;;;;24.34;43.84;101725.75;5049950;28;19916;-55
2022/07/20 01:04:05;;;;;;;;;;;;;;;24.30;43.86;101722.50;5055309;28;20276;-55
2022/07/20 01:06:30;;;;;;;;;;;;;;;24.26;44.11;101729.22;5049608;28;19917;-56
2022/07/20 01:08:56;;;;;;;;;;;;;;;24.21;44.25;101728.84;5051880;28;19917;-57
2022/07/20 01:11:21;;;;;;;;;;;;;;;24.16;44.06;101725.75;5053671;28;19981;-56
2022/07/20 01:13:47;;;;;;;;;;;;;;;24.10;44.25;101732.59;5049639;28;19917;-55
2022/07/20 01:16:12;;;;;;;;;;;;;;;24.03;44.43;101732.38;5056477;28;19917;-55
2022/07/20 01:18:37;;;;;;;;;;;;;;;23.98;44.25;101729.28;5033234;28;19932;-56
2022/07/20 01:21:03;;;;;;;;;;;;;;;23.96;44.40;101720.56;5052703;28;19913;-55
2022/07/20 01:23:29;;;;;;;;;;;;;;;23.95;44.38;101723.34;5050089;28;19916;-58
2022/07/20 01:25:55;;;;;;;;;;;;;;;23.92;44.72;101724.50;5052892;28;19909;-55
2022/07/20 01:28:20;;;;;;;;;;;;;;;23.89;44.65;101724.81;5055268;28;20026;-56
2022/07/20 01:30:45;;;;;;;;;;;;;;;23.86;44.76;101719.75;5052728;28;20355;-58
2022/07/20 01:33:10;;;;;;;;;;;;;;;23.84;44.76;101724.41;5049285;28;19917;-56
2022/07/20 01:35:36;;;;;;;;;;;;;;;23.80;45.13;101720.38;5054232;28;19920;-58
2022/07/20 01:38:01;;;;;;;;;;;;;;;23.74;45.01;101725.34;5054296;28;19917;-56
2022/07/20 01:40:27;;;;;;;;;;;;;;;23.73;45.27;101725.50;5050233;28;19912;-57
2022/07/20 01:42:52;;;;;;;;;;;;;;;23.70;45.21;101721.25;5050405;28;19915;-56
2022/07/20 01:45:18;;;;;;;;;;;;;;;23.67;45.26;101715.34;5048890;28;20306;-55
2022/07/20 01:47:43;;;;;;;;;;;;;;;23.62;45.70;101713.13;5056098;28;20424;-55
2022/07/20 01:50:09;;;;;;;;;;;;;;;23.58;45.50;101709.03;5051152;28;19974;-55
2022/07/20 01:52:34;;;;;;;;;;;;;;;23.58;45.84;101703.66;5051739;28;19924;-55
2022/07/20 01:55:00;;;;;;;;;;;;;;;23.57;45.52;101705.53;5049320;28;19913;-55
2022/07/20 01:57:25;;;;;;;;;;;;;;;23.58;45.93;101706.34;5052858;28;19965;-55
2022/07/20 01:59:50;;;;;;;;;;;;;;;23.56;45.90;101703.84;5052942;28;19916;-54
2022/07/20 02:02:15;;;;;;;;;;;;;;;23.56;45.87;101697.59;5056997;28;19921;-55
2022/07/20 02:04:41;;;;;;;;;;;;;;;23.54;45.97;101704.97;5053359;28;19917;-56
2022/07/20 02:07:06;;;;;;;;;;;;;;;23.48;46.00;101700.22;5053976;28;20014;-56
2022/07/20 02:09:31;;;;;;;;;;;;;;;23.45;46.02;101704.03;5052381;28;19913;-58
2022/07/20 02:11:57;;;;;;;;;;;;;;;23.45;46.06;101701.34;5050244;28;19917;-57
2022/07/20 02:14:22;;;;;;;;;;;;;;;23.44;46.19;101692.44;5050010;28;19912;-55
2022/07/20 02:16:47;;;;;;;;;;;;;;;23.42;46.33;101697.13;5046165;28;19956;-55
2022/07/20 02:19:13;;;;;;;;;;;;;;;23.39;46.36;101691.22;5050530;28;19919;-55
2022/07/20 02:21:38;;;;;;;;;;;;;;;23.38;46.42;101694.88;5054269;28;20041;-56
2022/07/20 02:24:04;;;;;;;;;;;;;;;23.37;46.22;101698.56;5056769;28;19966;-56
2022/07/20 02:26:29;;;;;;;;;;;;;;;23.34;46.42;101697.03;5048281;28;20003;-55
2022/07/20 02:28:55;;;;;;;;;;;;;;;23.32;46.39;101700.84;5051782;28;19925;-55
2022/07/20 02:31:21;;;;;;;;;;;;;;;23.27;46.67;101704.84;5053729;28;20007;-56
2022/07/20 02:33:47;;;;;;;;;;;;;;;23.25;46.59;101705.97;5049614;28;19912;-56
2022/07/20 02:36:12;;;;;;;;;;;;;;;23.25;46.60;101705.97;5057881;28;19923;-55
2022/07/20 02:38:38;;;;;;;;;;;;;;;23.24;46.79;101698.91;5049296;28;19913;-55
2022/07/20 02:41:03;;;;;;;;;;;;;;;23.23;46.75;101691.84;5052967;28;20023;-55
2022/07/20 02:43:29;;;;;;;;;;;;;;;23.21;47.04;101696.53;5050644;28;19927;-55
2022/07/20 02:45:54;;;;;;;;;;;;;;;23.18;46.89;101686.91;5048720;28;19913;-59
2022/07/20 02:48:19;;;;;;;;;;;;;;;23.13;47.26;101692.72;5053378;28;19920;-55
2022/07/20 02:50:45;;;;;;;;;;;;;;;23.10;47.16;101690.31;5049944;28;19948;-55
2022/07/20 02:53:11;;;;;;;;;;;;;;;23.09;47.11;101688.63;5052746;28;19923;-57
2022/07/20 02:55:37;;;;;;;;;;;;;;;23.07;47.34;101692.47;5054133;28;19983;-59
2022/07/20 02:58:03;;;;;;;;;;;;;;;23.06;47.12;101694.31;5055940;28;20343;-56
2022/07/20 03:00:29;;;;;;;;;;;;;;;23.04;47.17;101695.44;5049973;28;19924;-56
2022/07/20 03:02:54;;;;;;;;;;;;;;;23.02;47.11;101695.59;5053087;28;19913;-55
2022/07/20 03:05:19;;;;;;;;;;;;;;;23.00;47.31;101692.22;5051374;28;19913;-54
2022/07/20 03:07:45;;;;;;;;;;;;;;;22.97;47.62;101692.50;5051115;28;20003;-55
2022/07/20 03:10:11;;;;;;;;;;;;;;;22.93;47.49;101693.78;5054492;28;20046;-57
2022/07/20 03:12:36;;;;;;;;;;;;;;;22.88;47.48;101698.75;5051182;28;19936;-56
2022/07/20 03:15:02;;;;;;;;;;;;;;;22.81;47.79;101693.13;5054316;28;20291;-58
2022/07/20 03:17:27;;;;;;;;;;;;;;;22.77;48.07;101692.56;5046618;28;19912;-56
2022/07/20 03:19:53;;;;;;;;;;;;;;;22.75;47.98;101696.41;5050873;28;19917;-55
2022/07/20 03:22:18;;;;;;;;;;;;;;;22.76;48.03;101701.63;5052463;28;19935;-55
2022/07/20 03:24:43;;;;;;;;;;;;;;;22.79;48.12;101695.94;5048631;28;19916;-56
2022/07/20 03:27:09;;;;;;;;;;;;;;;22.82;47.69;101695.66;5044468;28;20352;-56
2022/07/20 03:29:35;;;;;;;;;;;;;;;22.82;47.88;101692.97;5051545;28;19916;-55
2022/07/20 03:32:00;;;;;;;;;;;;;;;22.82;47.81;101695.66;5049455;28;19920;-56
2022/07/20 03:34:25;;;;;;;;;;;;;;;22.80;48.16;101689.59;5050482;28;20256;-56
2022/07/20 03:36:50;;;;;;;;;;;;;;;22.81;47.86;101693.13;5050960;28;19964;-55
2022/07/20 03:39:16;;;;;;;;;;;;;;;22.80;48.21;101700.31;5051899;28;19974;-57
2022/07/20 03:41:41;;;;;;;;;;;;;;;22.80;47.96;101703.00;5046806;28;19925;-56
2022/07/20 03:44:07;;;;;;;;;;;;;;;22.79;48.15;101700.47;5049423;28;19919;-55
2022/07/20 03:46:33;;;;;;;;;;;;;;;22.78;48.13;101701.47;5049932;28;19947;-56
2022/07/20 03:48:58;;;;;;;;;;;;;;;22.78;48.17;101705.00;5053038;28;19999;-55
2022/07/20 03:51:23;;;;;;;;;;;;;;;22.77;48.17;101700.59;5048370;28;20292;-55
2022/07/20 03:53:49;;;;;;;;;;;;;;;22.76;48.19;101701.63;5047766;28;19975;-55
2022/07/20 03:56:14;;;;;;;;;;;;;;;22.77;48.16;101697.09;5054699;28;19999;-56
2022/07/20 03:58:39;;;;;;;;;;;;;;;22.77;48.24;101702.47;5043879;28;19951;-55
2022/07/20 04:01:05;;;;;;;;;;;;;;;22.76;48.26;101706.13;5043739;28;19921;-56
2022/07/20 04:03:30;;;;;;;;;;;;;;;22.73;48.32;101704.59;5045326;28;19939;-54
2022/07/20 04:05:55;;;;;;;;;;;;;;;22.72;48.57;101700.22;5045287;28;20031;-55
2022/07/20 04:08:21;;;;;;;;;;;;;;;22.72;48.55;101694.00;5044780;28;20291;-53
2022/07/20 04:10:46;;;;;;;;;;;;;;;22.75;48.81;101702.63;5051005;28;19912;-55
2022/07/20 04:13:11;;;;;;;;;;;;;;;22.78;48.37;101710.34;5051998;28;19971;-53
2022/07/20 04:15:37;;;;;;;;;;;;;;;22.81;48.39;101710.06;5052216;28;19925;-54
2022/07/20 04:18:02;;;;;;;;;;;;;;;22.81;48.35;101707.38;5055820;28;19952;-56
2022/07/20 04:20:27;;;;;;;;;;;;;;;22.82;48.52;101717.13;5052094;28;20387;-58
2022/07/20 04:22:52;;;;;;;;;;;;;;;22.81;48.70;101706.56;5054965;28;19963;-54
2022/07/20 04:25:19;;;;;;;;;;;;;;;22.82;48.79;101717.13;5062752;28;20337;-54
2022/07/20 04:27:44;;;;;;;;;;;;;;;22.85;48.54;101710.63;5050469;28;19920;-56
2022/07/20 04:30:10;;;;;;;;;;;;;;;22.87;48.55;101716.69;5054574;28;19921;-55
2022/07/20 04:32:35;;;;;;;;;;;;;;;22.89;48.82;101727.28;5060147;28;19927;-55
2022/07/20 04:35:01;;;;;;;;;;;;;;;22.89;48.75;101721.94;5054153;28;19917;-54
2022/07/20 04:37:26;;;;;;;;;;;;;;;22.90;48.86;101712.88;5059702;28;19912;-55
2022/07/20 04:39:51;;;;;;;;;;;;;;;22.90;48.57;101713.72;5052541;28;20299;-55
2022/07/20 04:42:16;;;;;;;;;;;;;;;22.92;48.90;101718.91;5056268;28;19924;-54
2022/07/20 04:44:42;;;;;;;;;;;;;;;22.95;48.64;101710.59;5051169;28;19917;-53
2022/07/20 04:47:07;;;;;;;;;;;;;;;22.98;48.54;101715.66;5052258;28;19970;-55
2022/07/20 04:49:32;;;;;;;;;;;;;;;23.01;48.71;101718.06;5052292;28;19936;-54
2022/07/20 04:51:58;;;;;;;;;;;;;;;23.02;48.89;101719.75;5055115;28;20356;-53
2022/07/20 04:54:23;;;;;;;;;;;;;;;23.04;48.78;101717.78;5053622;28;19920;-53
2022/07/20 04:56:49;;;;;;;;;;;;;;;23.07;48.64;101719.31;5060207;28;19931;-54
2022/07/20 04:59:14;;;;;;;;;;;;;;;23.08;48.65;101723.69;5056865;28;19913;-54
2022/07/20 05:01:39;;;;;;;;;;;;;;;23.10;48.74;101722.53;5037938;28;20550;-55
2022/07/20 05:04:05;;;;;;;;;;;;;;;23.14;48.49;101721.25;5046633;28;19917;-53
2022/07/20 05:06:30;;;;;;;;;;;;;;;23.19;48.61;101733.41;5050563;28;19917;-54
2022/07/20 05:08:56;;;;;;;;;;;;;;;23.23;48.47;101718.69;5051759;28;19950;-53
2022/07/20 05:11:21;;;;;;;;;;;;;;;23.27;48.48;101720.09;5049970;28;20363;-53
2022/07/20 05:13:46;;;;;;;;;;;;;;;23.29;48.49;101712.75;5049520;28;19916;-54
2022/07/20 05:16:12;;;;;;;;;;;;;;;23.33;48.43;101714.13;5043924;28;19934;-53
2022/07/20 05:18:37;;;;;;;;;;;;;;;23.35;48.42;101717.53;5048091;28;20324;-54
2022/07/20 05:21:03;;;;;;;;;;;;;;;23.39;48.43;101720.75;5051281;28;20260;-54
2022/07/20 05:23:28;;;;;;;;;;;;;;;23.41;48.56;101716.91;5051725;28;20322;-57
2022/07/20 05:25:53;;;;;;;;;;;;;;;23.43;48.42;101714.09;5050949;28;19913;-54
2022/07/20 05:28:20;;;;;;;;;;;;;;;23.46;48.35;101715.63;5053783;28;20542;-54
2022/07/20 05:30:45;;;;;;;;;;;;;;;23.50;48.56;101712.47;5047217;28;19917;-55
2022/07/20 05:33:11;;;;;;;;;;;;;;;23.54;48.37;101710.31;5041262;28;20282;-55
2022/07/20 05:35:36;;;;;;;;;;;;;;;23.60;48.21;101709.75;5043182;28;20283;-56
2022/07/20 05:38:01;;;;;;;;;;;;;;;23.65;48.24;101712.81;5050569;28;20301;-53
2022/07/20 05:40:27;;;;;;;;;;;;;;;23.69;48.16;101716.06;5049265;28;20432;-54
2022/07/20 05:42:52;;;;;;;;;;;;;;;23.74;48.08;101706.53;5050011;28;19917;-53
2022/07/20 05:45:17;;;;;;;;;;;;;;;23.80;48.02;101699.69;5056703;28;20287;-54
2022/07/20 05:47:43;;;;;;;;;;;;;;;23.86;47.98;101709.84;5049865;28;19917;-55
2022/07/20 05:50:08;;;;;;;;;;;;;;;23.92;47.80;101708.38;5045210;28;19919;-54
2022/07/20 05:52:34;;;;;;;;;;;;;;;23.97;47.79;101711.50;5053789;28;21346;-57
2022/07/20 05:54:59;;;;;;;;;;;;;;;24.02;47.70;101719.09;5051150;28;19917;-56
2022/07/20 05:57:24;;;;;;;;;;;;;;;24.10;47.42;101715.63;5045815;28;19943;-56
2022/07/20 05:59:50;;;;;;;;;;;;;;;24.14;47.40;101712.47;5051513;28;20390;-55
2022/07/20 06:02:15;;;;;;;;;;;;;;;24.19;47.42;101722.75;5052083;28;20261;-55
2022/07/20 06:04:40;;;;;;;;;;;;;;;24.23;47.26;101726.84;5052569;28;19952;-55
2022/07/20 06:07:06;;;;;;;;;;;;;;;24.25;47.34;101722.16;5053479;28;19961;-55
2022/07/20 06:09:31;;;;;;;;;;;;;;;24.28;47.24;101727.19;5050695;28;19916;-54
2022/07/20 06:11:56;;;;;;;;;;;;;;;24.33;47.06;101722.22;5051180;28;20303;-54
2022/07/20 06:14:21;;;;;;;;;;;;;;;24.39;46.98;101725.28;5049334;28;20517;-54
2022/07/20 06:16:47;;;;;;;;;;;;;;;24.42;46.98;101724.97;5049787;28;19916;-55
2022/07/20 06:19:12;;;;;;;;;;;;;;;24.45;47.02;101724.66;5053789;28;19931;-54
2022/07/20 06:21:37;;;;;;;;;;;;;;;24.49;46.83;101731.41;5050335;28;19923;-56
2022/07/20 06:24:03;;;;;;;;;;;;;;;24.53;46.70;101738.19;5051959;28;19913;-56
2022/07/20 06:26:31;;;;;;;;;;;;;;;24.58;46.75;101735.84;5054263;28;19958;-54
2022/07/20 06:28:56;;;;;;;;;;;;;;;24.63;46.70;101724.63;5054747;28;19923;-56
2022/07/20 06:31:22;;;;;;;;;;;;;;;24.68;46.75;101734.91;5052361;28;19916;-58
2022/07/20 06:33:47;;;;;;;;;;;;;;;24.71;46.55;101729.25;5055095;28;19927;-54
2022/07/20 06:36:12;;;;;;;;;;;;;;;24.75;46.57;101736.84;5049990;28;19934;-56
2022/07/20 06:38:37;;;;;;;;;;;;;;;24.79;46.42;101729.28;5052151;28;20851;-56
2022/07/20 06:41:03;;;;;;;;;;;;;;;24.85;46.25;101734.03;5049033;28;19921;-57
2022/07/20 06:43:28;;;;;;;;;;;;;;;24.89;46.36;101734.56;5058753;28;19924;-54
2022/07/20 06:45:53;;;;;;;;;;;;;;;24.92;46.21;101743.16;5049847;28;19920;-53
2022/07/20 06:48:19;;;;;;;;;;;;;;;24.97;46.17;101739.97;5052412;28;19920;-54
2022/07/20 06:50:45;;;;;;;;;;;;;;;25.01;46.15;101735.16;5048471;28;19927;-57
2022/07/20 06:53:10;;;;;;;;;;;;;;;25.04;46.06;101741.03;5049078;28;19913;-57
2022/07/20 06:55:36;;;;;;;;;;;;;;;25.08;46.17;101738.88;5052364;28;19939;-55
2022/07/20 06:58:01;;;;;;;;;;;;;;;25.11;46.01;101741.25;5053784;28;20384;-55
2022/07/20 07:00:27;;;;;;;;;;;;;;;25.15;46.18;101737.22;5045700;28;19924;-53
2022/07/20 07:02:52;;;;;;;;;;;;;;;25.18;45.99;101736.91;5047751;28;19917;-56
2022/07/20 07:05:18;;;;;;;;;;;;;;;25.21;46.08;101735.75;5051936;28;19913;-56
2022/07/20 07:07:43;;;;;;;;;;;;;;;25.25;46.03;101737.13;5029976;28;19942;-55
2022/07/20 07:10:09;;;;;;;;;;;;;;;25.29;46.08;101737.63;5053559;28;19996;-53
2022/07/20 07:12:34;;;;;;;;;;;;;;;25.32;46.02;101729.22;5053536;28;19923;-52
2022/07/20 07:15:00;;;;;;;;;;;;;;;25.36;46.09;101730.56;5050108;28;19920;-55
2022/07/20 07:17:27;;;;;;;;;;;;;;;25.41;45.96;101731.78;5046752;28;20394;-54
2022/07/20 07:19:52;;;;;;;;;;;;;;;25.45;46.35;101740.41;5056269;28;19912;-51
2022/07/20 07:22:18;;;;;;;;;;;;;;;25.48;46.07;101737.41;5047857;28;20299;-56
2022/07/20 07:24:43;;;;;;;;;;;;;;;25.54;45.93;101747.50;5054001;28;20323;-55
2022/07/20 07:27:08;;;;;;;;;;;;;;;25.58;46.07;101742.63;5048302;28;19924;-54
2022/07/20 07:29:34;;;;;;;;;;;;;;;25.63;45.87;101744.84;5051758;28;19921;-56
2022/07/20 07:31:59;;;;;;;;;;;;;;;25.67;45.93;101743.50;5047395;28;19924;-52
2022/07/20 07:34:25;;;;;;;;;;;;;;;25.72;45.94;101741.16;5055320;28;19999;-58
2022/07/20 07:36:51;;;;;;;;;;;;;;;25.76;45.73;101736.28;5048936;28;19917;-56
2022/07/20 07:39:16;;;;;;;;;;;;;;;25.81;45.59;101740.16;5053718;28;19963;-59
2022/07/20 07:41:41;;;;;;;;;;;;;;;25.87;45.41;101734.13;5046444;28;19917;-56
2022/07/20 07:44:07;;;;;;;;;;;;;;;25.94;45.37;101733.47;5052786;28;20296;-54
2022/07/20 07:46:32;;;;;;;;;;;;;;;25.99;45.37;101734.66;5050927;28;19948;-54
2022/07/20 07:48:57;;;;;;;;;;;;;;;26.04;45.14;101736.84;5054208;28;20283;-56
2022/07/20 07:51:23;;;;;;;;;;;;;;;26.09;45.08;101729.06;5052443;28;19916;-56
2022/07/20 07:53:48;;;;;;;;;;;;;;;26.16;45.02;101734.69;5054035;28;19935;-53
2022/07/20 07:56:13;;;;;;;;;;;;;;;26.21;45.13;101721.53;5059162;28;19917;-53
2022/07/20 07:58:39;;;;;;;;;;;;;;;26.26;44.92;101718.31;5063688;28;19919;-54
2022/07/20 08:01:04;;;;;;;;;;;;;;;26.30;45.01;101716.97;5053766;28;19924;-52
2022/07/20 08:03:29;;;;;;;;;;;;;;;26.35;44.66;101717.31;5057393;28;19935;-59
2022/07/20 08:05:55;;;;;;;;;;;;;;;26.39;44.54;101715.13;5051329;28;20339;-53
2022/07/20 08:08:20;;;;;;;;;;;;;;;26.43;44.57;101708.38;5056337;28;19912;-53
2022/07/20 08:10:45;;;;;;;;;;;;;;;26.49;44.45;101713.06;5053642;28;20288;-56
2022/07/20 08:13:11;;;;;;;;;;;;;;;26.56;44.53;101716.78;5054383;28;20344;-53
2022/07/20 08:15:37;;;;;;;;;;;;;;;26.65;44.30;101717.63;5053056;28;19916;-53
2022/07/20 08:18:03;;;;;;;;;;;;;;;26.71;43.95;101716.91;5056868;28;19915;-53
2022/07/20 08:20:28;;;;;;;;;;;;;;;26.78;43.93;101715.22;5053551;28;19974;-53
2022/07/20 08:22:53;;;;;;;;;;;;;;;26.85;43.76;101719.97;5055665;28;19955;-54
2022/07/20 08:25:19;;;;;;;;;;;;;;;26.90;44.03;101714.88;5053621;28;20048;-54
2022/07/20 08:27:44;;;;;;;;;;;;;;;26.97;43.94;101721.28;5051914;28;19921;-52
2022/07/20 08:30:10;;;;;;;;;;;;;;;27.03;43.80;101707.06;5050490;28;19921;-55
2022/07/20 08:32:35;;;;;;;;;;;;;;;27.08;43.69;101703.84;5054091;28;19912;-57
2022/07/20 08:35:01;;;;;;;;;;;;;;;27.12;43.36;101707.88;5051384;28;19912;-56
2022/07/20 08:37:26;;;;;;;;;;;;;;;27.18;43.26;101717.13;5054968;28;19923;-55
2022/07/20 08:39:52;;;;;;;;;;;;;;;27.20;43.43;101715.09;5049436;28;19992;-52
2022/07/20 08:42:17;;;;;;;;;;;;;;;27.23;43.23;101714.75;5048598;28;19927;-60
2022/07/20 08:44:43;;;;;;;;;;;;;;;27.29;43.08;101713.22;5042946;28;20326;-56
2022/07/20 08:47:12;;;;;;;;;;;;;;;27.33;42.86;101715.38;5046695;28;19917;-53
2022/07/20 08:49:38;;;;;;;;;;;;;;;27.37;42.79;101711.31;5047791;28;19917;-52
2022/07/20 08:52:04;;;;;;;;;;;;;;;27.42;42.67;101709.94;5047517;28;19924;-53
2022/07/20 08:54:31;;;;;;;;;;;;;;;27.46;42.86;101712.16;5048680;28;19948;-54
2022/07/20 08:56:56;;;;;;;;;;;;;;;27.55;42.56;101715.66;5052596;28;19932;-52
2022/07/20 08:59:21;;;;;;;;;;;;;;;27.62;42.09;101719.31;5049719;28;19912;-54
2022/07/20 09:01:56;;;;;;;;;;;;;;;27.69;41.94;101724.84;5050687;28;19920;-57
2022/07/20 09:04:22;;;;;;;;;;;;;;;27.76;41.95;101719.56;5051664;28;19978;-56
2022/07/20 09:06:48;;;;;;;;;;;;;;;27.82;41.71;101713.44;5051725;28;20398;-56
2022/07/20 09:09:13;;;;;;;;;;;;;;;27.89;41.25;101709.00;5051608;28;20015;-58
2022/07/20 09:11:39;;;;;;;;;;;;;;;27.95;40.94;101713.69;5050658;28;19996;-56
2022/07/20 09:14:04;;;;;;;;;;;;;;;28.03;40.83;101711.94;5050291;28;19919;-54
2022/07/20 09:16:46;;;;;;;;;;;;;;;28.10;40.67;101715.63;5054067;28;19920;-56
2022/07/20 09:19:11;;;;;;;;;;;;;;;28.19;39.98;101713.69;5048849;28;20338;-54
2022/07/20 09:21:37;;;;;;;;;;;;;;;28.29;39.74;101703.44;5048968;28;19920;-55
2022/07/20 09:24:03;;;;;;;;;;;;;;;28.37;39.60;101711.50;5050443;28;19967;-54
2022/07/20 09:26:29;;;;;;;;;;;;;;;28.46;39.53;101717.69;5052424;28;19917;-55
2022/07/20 09:28:55;;;;;;;;;;;;;;;28.51;39.26;101719.84;5048369;28;19976;-57
2022/07/20 09:31:20;;;;;;;;;;;;;;;28.55;39.09;101718.44;5052087;28;19921;-57
2022/07/20 09:33:50;;;;;;;;;;;;;;;28.58;38.67;101716.19;5048636;28;19921;-57
2022/07/20 09:36:16;;;;;;;;;;;;;;;28.62;38.83;101715.84;5049470;28;19920;-58
2022/07/20 09:38:41;;;;;;;;;;;;;;;28.65;38.78;101713.59;5051373;28;19917;-56
2022/07/20 09:41:25;;;;;;;;;;;;;;;28.67;38.46;101710.69;5050215;28;19959;-56
2022/07/20 09:43:51;;;;;;;;;;;;;;;28.73;37.94;101710.00;5053473;28;19935;-57
2022/07/20 09:46:36;;;;;;;;;;;;;;;28.78;38.16;101701.31;5040191;28;19923;-59
2022/07/20 09:49:06;;;;;;;;;;;;;;;28.77;38.09;101703.19;5051974;28;19917;-58
2022/07/20 09:51:33;;;;;;;;;;;;;;;28.78;37.73;101704.00;5046274;28;19954;-59
2022/07/20 09:54:18;;;;;;;;;;;;;;;28.82;37.39;101699.91;5054900;28;19936;-59
2022/07/20 09:56:45;;;;;;;;;;;;;;;28.91;37.59;101698.78;5054197;28;19943;-58
2022/07/20 09:59:12;;;;;;;;;;;;;;;28.96;37.46;101698.22;5048579;28;20011;-58
2022/07/20 10:01:38;;;;;;;;;;;;;;;29.05;37.24;101697.09;5051159;28;19924;-52
2022/07/20 10:04:05;;;;;;;;;;;;;;;29.14;36.66;101697.81;5051549;28;19917;-55
2022/07/20 10:06:30;;;;;;;;;;;;;;;29.22;36.50;101696.88;5051971;28;19916;-57
2022/07/20 10:08:56;;;;;;;;;;;;;;;29.26;36.37;101692.78;5051145;28;20422;-56
2022/07/20 10:11:22;;;;;;;;;;;;;;;29.31;36.22;101701.16;5051730;28;19983;-52
2022/07/20 10:13:48;;;;;;;;;;;;;;;29.35;36.26;101702.50;5050150;28;19966;-52
2022/07/20 10:16:23;;;;;;;;;;;;;;;29.40;36.05;101705.47;5050553;28;20301;-54
2022/07/20 10:18:48;;;;;;;;;;;;;;;29.46;35.51;101698.44;5050365;28;19919;-55
2022/07/20 10:21:32;;;;;;;;;;;;;;;29.56;35.77;101698.16;5056648;28;19909;-54
2022/07/20 10:24:22;;;;;;;;;;;;;;;29.61;35.43;101692.97;5049735;28;19913;-53
2022/07/20 10:26:49;;;;;;;;;;;;;;;29.65;35.02;101688.84;5042558;28;19913;-53
2022/07/20 10:29:28;;;;;;;;;;;;;;;29.65;34.90;101684.25;5053751;28;20367;-55
2022/07/20 10:31:56;;;;;;;;;;;;;;;29.65;34.78;101686.94;5049338;28;19921;-55
2022/07/20 10:34:37;;;;;;;;;;;;;;;29.69;34.77;101687.44;5050266;28;19920;-53
2022/07/20 10:37:20;;;;;;;;;;;;;;;29.77;34.62;101683.75;5044715;28;19912;-55
2022/07/20 10:39:46;;;;;;;;;;;;;;;29.89;34.54;101686.75;5045408;28;19924;-58
2022/07/20 10:42:27;;;;;;;;;;;;;;;30.00;34.17;101686.28;5051223;28;19921;-57
2022/07/20 10:44:53;;;;;;;;;;;;;;;30.09;33.92;101681.56;5047958;28;19920;-55
2022/07/20 10:47:37;;;;;;;;;;;;;;;30.18;34.05;101674.94;5047390;28;19920;-56
2022/07/20 10:50:04;;;;;;;;;;;;;;;30.27;33.49;101664.78;5047182;28;19940;-57
2022/07/20 10:52:30;;;;;;;;;;;;;;;30.32;33.68;101664.19;5045079;28;19912;-55
2022/07/20 10:54:55;;;;;;;;;;;;;;;30.39;33.72;101660.47;5038115;28;19924;-55
2022/07/20 10:57:21;;;;;;;;;;;;;;;30.48;33.35;101666.59;5050010;28;19916;-55
2022/07/20 10:59:58;;;;;;;;;;;;;;;30.55;33.05;101659.34;5055260;22;19982;-60
2022/07/20 11:02:24;;;;;;;;;;;;;;;30.66;33.04;101660.66;5068192;28;19917;-61
2022/07/20 11:04:49;;;;;;;;;;;;;;;30.74;32.64;101665.09;5064455;28;19923;-59
2022/07/20 11:07:27;;;;;;;;;;;;;;;30.80;32.49;101669.72;5066866;28;19939;-59
2022/07/20 11:09:53;;;;;;;;;;;;;;;30.85;32.37;101669.13;5049070;28;19925;-56
2022/07/20 11:12:28;;;;;;;;;;;;;;;30.89;32.25;101667.69;5030716;28;19940;-57
2022/07/20 11:14:54;;;;;;;;;;;;;;;30.92;31.78;101667.28;5048413;28;20007;-57
2022/07/20 11:17:20;;;;;;;;;;;;;;;30.97;31.77;101662.06;5050233;28;20283;-54
2022/07/20 11:19:45;;;;;;;;;;;;;;;31.03;31.76;101665.84;5047310;28;20379;-58
2022/07/20 11:22:12;;;;;;;;;;;;;;;31.07;31.40;101660.84;5045203;28;20411;-57
2022/07/20 11:24:37;;;;;;;;;;;;;;;31.09;31.58;101653.31;5044202;28;19923;-59
2022/07/20 11:27:14;;;;;;;;;;;;;;;31.13;31.62;101657.34;5044566;28;19924;-56
2022/07/20 11:29:46;;;;;;;;;;;;;;;31.17;31.29;101656.72;5045213;28;20303;-58
2022/07/20 11:32:12;;;;;;;;;;;;;;;31.20;30.94;101644.63;5046963;28;19921;-57
2022/07/20 11:34:47;;;;;;;;;;;;;;;31.23;30.93;101648.81;5046900;28;19923;-57
2022/07/20 11:37:17;;;;;;;;;;;;;;;31.26;30.99;101651.94;5032659;28;19986;-59
2022/07/20 11:39:43;;;;;;;;;;;;;;;31.29;30.92;101648.81;5047763;28;20010;-57
2022/07/20 11:42:15;;;;;;;;;;;;;;;31.31;30.98;101645.91;5046571;28;20398;-60
2022/07/20 11:44:41;;;;;;;;;;;;;;;31.37;30.93;101633.38;5044326;28;19963;-57
2022/07/20 11:47:07;;;;;;;;;;;;;;;31.40;30.62;101625.63;5046547;28;20298;-57
2022/07/20 11:49:32;;;;;;;;;;;;;;;31.46;30.69;101626.69;5046100;28;20372;-54
2022/07/20 11:51:59;;;;;;;;;;;;;;;31.54;30.42;101620.22;5022796;28;19924;-57
2022/07/20 11:54:28;;;;;;;;;;;;;;;31.62;30.41;101623.56;5046630;28;19919;-54
2022/07/20 11:56:53;;;;;;;;;;;;;;;31.67;30.18;101616.69;5048305;28;19917;-55
2022/07/20 11:59:19;;;;;;;;;;;;;;;31.69;30.02;101620.03;5031900;28;19912;-56
2022/07/20 12:01:44;;;;;;;;;;;;;;;31.78;29.81;101621.50;5046628;28;19927;-54
2022/07/20 12:04:14;;;;;;;;;;;;;;;31.85;29.82;101608.72;5047960;28;20007;-54
2022/07/20 12:06:41;;;;;;;;;;;;;;;31.94;29.66;101614.78;5048085;28;19963;-55
2022/07/20 12:09:10;;;;;;;;;;;;;;;32.01;29.44;101607.47;5046075;28;20390;-56
2022/07/20 12:11:51;;;;;;;;;;;;;;;32.08;29.38;101613.72;5043054;28;20245;-53
2022/07/20 12:14:24;;;;;;;;;;;;;;;32.17;29.33;101606.19;5038860;28;19935;-55
2022/07/20 12:16:50;;;;;;;;;;;;;;;32.21;29.04;101601.16;5045746;28;19912;-55
2022/07/20 12:19:15;;;;;;;;;;;;;;;32.26;28.85;101606.00;5038140;28;20445;-56
2022/07/20 12:21:43;;;;;;;;;;;;;;;32.33;28.67;101599.50;5043462;28;20005;-54
2022/07/20 12:24:08;;;;;;;;;;;;;;;32.39;28.69;101600.53;5049531;28;19986;-53
2022/07/20 12:26:37;;;;;;;;;;;;;;;32.44;28.53;101598.00;5049117;28;19951;-53
2022/07/20 12:29:19;;;;;;;;;;;;;;;32.50;28.45;101605.28;5045021;28;19919;-56
2022/07/20 12:31:55;;;;;;;;;;;;;;;32.56;28.34;101598.16;5049528;28;19923;-53
2022/07/20 12:34:21;;;;;;;;;;;;;;;32.61;28.12;101595.63;5029332;28;19924;-53